Time;durP1;ratioP1;P1;durP2;ratioP2;P2;SDS_P1;SDS_P2;PMS_P1;PMS_P2;Temp;Humidity;BMP_temperature;BMP_pressure;BME280_temperature;BME280_humidity;BME280_pressure;Samples;Min_cycle;Max_cycle;Signal;HPM_P1;HPM_P2
2021/01/23 00:01:03;;;;;;;;;;;;;;;;;;4884585;29;19914;-78
2021/01/23 00:03:29;;;;;;;;;;;;;;;;;;4884521;29;19930;-78
2021/01/23 00:05:55;;;;;;;;;;;;;;;;;;4918915;29;19922;-78
2021/01/23 00:08:21;;;;;;;;;;;;;;;;;;4903079;29;19907;-78
2021/01/23 00:10:47;;;;;;;;;;;;;;;;;;4918634;29;19997;-78
2021/01/23 00:13:13;;;;;;;;;;;;;;;;;;4918910;29;19968;-78
2021/01/23 00:15:39;;;;;;;;;;;;;;;;;;4919233;29;20298;-78
2021/01/23 00:18:05;;;;;;;;;;;;;;;;;;4912260;29;20290;-78
2021/01/23 00:20:31;;;;;;;;;;;;;;;;;;4919714;29;20346;-78
2021/01/23 00:22:57;;;;;;;;;;;;;;;;;;4924169;29;19907;-78
2021/01/23 00:25:23;;;;;;;;;;;;;;;;;;4924005;29;19911;-78
2021/01/23 00:27:49;;;;;;;;;;;;;;;;;;4924219;29;20014;-78
2021/01/23 00:30:15;;;;;;;;;;;;;;;;;;4924292;29;20271;-78
2021/01/23 00:32:41;;;;;;;;;;;;;;;;;;4923046;29;19907;-79
2021/01/23 00:35:06;;;;;;;;;;;;;;;;;;4922975;29;19907;-78
2021/01/23 00:37:32;;;;;;;;;;;;;;;;;;4923027;29;19915;-78
2021/01/23 00:39:58;;;;;;;;;;;;;;;;;;4924171;29;19907;-78
2021/01/23 00:42:24;;;;;;;;;;;;;;;;;;4924139;29;20221;-78
2021/01/23 00:44:50;;;;;;;;;;;;;;;;;;4924250;29;20290;-78
2021/01/23 00:47:16;;;;;;;;;;;;;;;;;;4924167;29;20246;-78
2021/01/23 00:49:42;;;;;;;;;;;;;;;;;;4923153;29;19990;-78
2021/01/23 00:52:08;;;;;;;;;;;;;;;;;;4923846;29;19954;-78
2021/01/23 00:54:34;;;;;;;;;;;;;;;;;;4924102;29;19938;-78
2021/01/23 00:57:00;;;;;;;;;;;;;;;;;;4922733;29;19962;-78
2021/01/23 00:59:25;;;;;;;;;;;;;;;;;;4923617;29;20321;-78
2021/01/23 01:01:51;;;;;;;;;;;;;;;;;;4923733;29;19978;-78
2021/01/23 01:04:18;;;;;;;;;;;;;;;;;;4929884;29;19926;-78
2021/01/23 01:06:44;;;;;;;;;;;;;;;;;;4942528;29;19906;-78
2021/01/23 01:09:09;;;;;;;;;;;;;;;;;;4942687;29;19913;-78
2021/01/23 01:11:35;;;;;;;;;;;;;;;;;;4942570;29;19926;-78
2021/01/23 01:14:01;;;;;;;;;;;;;;;;;;4942523;29;20297;-78
2021/01/23 01:16:27;;;;;;;;;;;;;;;;;;4942441;29;19910;-78
2021/01/23 01:18:53;;;;;;;;;;;;;;;;;;4942392;29;19907;-78
2021/01/23 01:21:19;;;;;;;;;;;;;;;;;;4925708;29;19954;-78
2021/01/23 01:23:45;;;;;;;;;;;;;;;;;;4925383;29;20353;-78
2021/01/23 01:26:11;;;;;;;;;;;;;;;;;;4942227;29;19907;-78
2021/01/23 01:28:37;;;;;;;;;;;;;;;;;;4941083;29;19915;-78
2021/01/23 01:31:03;;;;;;;;;;;;;;;;;;4925227;29;19913;-77
2021/01/23 01:33:29;;;;;;;;;;;;;;;;;;4925525;29;20002;-78
2021/01/23 01:35:55;;;;;;;;;;;;;;;;;;4941904;29;19966;-78
2021/01/23 01:38:20;;;;;;;;;;;;;;;;;;4942077;29;19914;-78
2021/01/23 01:40:46;;;;;;;;;;;;;;;;;;4941964;29;19914;-77
2021/01/23 01:43:12;;;;;;;;;;;;;;;;;;4941928;29;20034;-78
2021/01/23 01:45:38;;;;;;;;;;;;;;;;;;4942080;29;19950;-78
2021/01/23 01:48:04;;;;;;;;;;;;;;;;;;4941959;29;20001;-78
2021/01/23 01:50:30;;;;;;;;;;;;;;;;;;4941842;29;20282;-78
2021/01/23 01:52:56;;;;;;;;;;;;;;;;;;4941646;29;19906;-78
2021/01/23 01:55:22;;;;;;;;;;;;;;;;;;4941618;29;20012;-78
2021/01/23 01:57:48;;;;;;;;;;;;;;;;;;4924665;29;19906;-78
2021/01/23 02:00:14;;;;;;;;;;;;;;;;;;4941626;29;19913;-78
2021/01/23 02:02:40;;;;;;;;;;;;;;;;;;4941786;29;19907;-78
2021/01/23 02:05:05;;;;;;;;;;;;;;;;;;4941264;29;19965;-78
2021/01/23 02:07:31;;;;;;;;;;;;;;;;;;4941598;29;19918;-78
2021/01/23 02:09:57;;;;;;;;;;;;;;;;;;4941630;29;19910;-78
2021/01/23 02:12:23;;;;;;;;;;;;;;;;;;4924634;29;20315;-78
2021/01/23 02:14:49;;;;;;;;;;;;;;;;;;4941203;29;19913;-78
2021/01/23 02:17:15;;;;;;;;;;;;;;;;;;4941448;29;19918;-78
2021/01/23 02:19:41;;;;;;;;;;;;;;;;;;4924496;29;19914;-78
2021/01/23 02:22:07;;;;;;;;;;;;;;;;;;4941323;29;19907;-78
2021/01/23 02:24:33;;;;;;;;;;;;;;;;;;4941465;29;19917;-78
2021/01/23 02:26:59;;;;;;;;;;;;;;;;;;4924541;29;20380;-78
2021/01/23 02:29:25;;;;;;;;;;;;;;;;;;4940970;29;20241;-78
2021/01/23 02:31:50;;;;;;;;;;;;;;;;;;4940967;29;19954;-78
2021/01/23 02:34:16;;;;;;;;;;;;;;;;;;4940995;29;19950;-78
2021/01/23 02:36:42;;;;;;;;;;;;;;;;;;4941032;29;19919;-78
2021/01/23 02:39:08;;;;;;;;;;;;;;;;;;4940761;29;19907;-78
2021/01/23 02:41:34;;;;;;;;;;;;;;;;;;4940875;29;20282;-77
2021/01/23 02:44:00;;;;;;;;;;;;;;;;;;4940775;29;19914;-77
2021/01/23 02:46:26;;;;;;;;;;;;;;;;;;4940780;29;19914;-78
2021/01/23 02:48:52;;;;;;;;;;;;;;;;;;4923883;29;20301;-77
2021/01/23 02:51:18;;;;;;;;;;;;;;;;;;4923930;29;19914;-78
2021/01/23 02:53:44;;;;;;;;;;;;;;;;;;4940667;29;19907;-78
2021/01/23 02:56:10;;;;;;;;;;;;;;;;;;4924096;29;19911;-78
2021/01/23 02:58:35;;;;;;;;;;;;;;;;;;4940699;29;19914;-78
2021/01/23 03:01:01;;;;;;;;;;;;;;;;;;4940464;29;20009;-78
2021/01/23 03:03:27;;;;;;;;;;;;;;;;;;4940269;29;19907;-78
2021/01/23 03:05:53;;;;;;;;;;;;;;;;;;4940734;29;19924;-78
2021/01/23 03:08:19;;;;;;;;;;;;;;;;;;4940698;29;19907;-78
2021/01/23 03:10:45;;;;;;;;;;;;;;;;;;4940506;29;20238;-77
2021/01/23 03:13:11;;;;;;;;;;;;;;;;;;4940470;29;19914;-77
2021/01/23 03:15:37;;;;;;;;;;;;;;;;;;4940348;29;19918;-78
2021/01/23 03:18:03;;;;;;;;;;;;;;;;;;4940484;29;19910;-78
2021/01/23 03:20:29;;;;;;;;;;;;;;;;;;4940473;29;19906;-78
2021/01/23 03:22:55;;;;;;;;;;;;;;;;;;4923735;29;19913;-77
2021/01/23 03:25:20;;;;;;;;;;;;;;;;;;4940404;29;20264;-78
2021/01/23 03:27:46;;;;;;;;;;;;;;;;;;4940312;29;19994;-78
2021/01/23 03:30:12;;;;;;;;;;;;;;;;;;4940046;29;20301;-77
2021/01/23 03:32:38;;;;;;;;;;;;;;;;;;4923329;29;19907;-77
2021/01/23 03:35:04;;;;;;;;;;;;;;;;;;4940029;29;19903;-78
2021/01/23 03:37:30;;;;;;;;;;;;;;;;;;4940393;29;19914;-77
2021/01/23 03:39:56;;;;;;;;;;;;;;;;;;4940034;29;20313;-77
2021/01/23 03:42:22;;;;;;;;;;;;;;;;;;4940061;29;19914;-78
2021/01/23 03:44:48;;;;;;;;;;;;;;;;;;4939845;29;19914;-77
2021/01/23 03:47:14;;;;;;;;;;;;;;;;;;4939988;29;19917;-77
2021/01/23 03:49:40;;;;;;;;;;;;;;;;;;4923435;29;19913;-77
2021/01/23 03:52:05;;;;;;;;;;;;;;;;;;4943023;29;19930;-77
2021/01/23 03:54:31;;;;;;;;;;;;;;;;;;4944032;29;20243;-77
2021/01/23 03:56:57;;;;;;;;;;;;;;;;;;4943833;29;19953;-78
2021/01/23 03:59:23;;;;;;;;;;;;;;;;;;4943750;29;19938;-77
2021/01/23 04:01:49;;;;;;;;;;;;;;;;;;4943850;29;19950;-78
2021/01/23 04:04:15;;;;;;;;;;;;;;;;;;4943666;29;19919;-78
2021/01/23 04:06:41;;;;;;;;;;;;;;;;;;4943677;29;20203;-78
2021/01/23 04:09:07;;;;;;;;;;;;;;;;;;4943628;29;19907;-78
2021/01/23 04:11:33;;;;;;;;;;;;;;;;;;4943520;29;19917;-78
2021/01/23 04:13:59;;;;;;;;;;;;;;;;;;4943729;29;19907;-77
2021/01/23 04:16:25;;;;;;;;;;;;;;;;;;4943408;29;19917;-78
2021/01/23 04:18:50;;;;;;;;;;;;;;;;;;4926875;29;19913;-77
2021/01/23 04:21:16;;;;;;;;;;;;;;;;;;4943426;29;20220;-77
2021/01/23 04:23:44;;;;;;;;;;;;;;;;;;4943409;29;19910;-78
2021/01/23 04:26:10;;;;;;;;;;;;;;;;;;4943450;29;19903;-78
2021/01/23 04:28:36;;;;;;;;;;;;;;;;;;4943347;29;19910;-78
2021/01/23 04:31:02;;;;;;;;;;;;;;;;;;4943228;29;19903;-77
2021/01/23 04:33:28;;;;;;;;;;;;;;;;;;4943359;29;20002;-78
2021/01/23 04:35:54;;;;;;;;;;;;;;;;;;4926427;29;20010;-78
2021/01/23 04:38:20;;;;;;;;;;;;;;;;;;4943117;29;20663;-77
2021/01/23 04:40:46;;;;;;;;;;;;;;;;;;4943081;29;20013;-78
2021/01/23 04:43:12;;;;;;;;;;;;;;;;;;4943217;29;19953;-78
2021/01/23 04:45:37;;;;;;;;;;;;;;;;;;4943095;29;19949;-78
2021/01/23 04:48:03;;;;;;;;;;;;;;;;;;4942968;29;19907;-78
2021/01/23 04:50:29;;;;;;;;;;;;;;;;;;4942934;29;20316;-78
2021/01/23 04:52:55;;;;;;;;;;;;;;;;;;4943011;29;19911;-78
2021/01/23 04:55:21;;;;;;;;;;;;;;;;;;4942961;29;19962;-78
2021/01/23 04:57:47;;;;;;;;;;;;;;;;;;4943058;29;19907;-78
2021/01/23 05:00:13;;;;;;;;;;;;;;;;;;4942924;29;19917;-78
2021/01/23 05:02:39;;;;;;;;;;;;;;;;;;4942451;29;19997;-78
2021/01/23 05:05:05;;;;;;;;;;;;;;;;;;4942503;29;19918;-78
2021/01/23 05:07:31;;;;;;;;;;;;;;;;;;4942658;29;20228;-77
2021/01/23 05:09:57;;;;;;;;;;;;;;;;;;4942708;29;19916;-77
2021/01/23 05:12:23;;;;;;;;;;;;;;;;;;4942534;29;20212;-77
2021/01/23 05:14:49;;;;;;;;;;;;;;;;;;4942347;29;19907;-77
2021/01/23 05:17:15;;;;;;;;;;;;;;;;;;4925915;29;19911;-77
2021/01/23 05:19:41;;;;;;;;;;;;;;;;;;4942616;29;19946;-77
2021/01/23 05:22:06;;;;;;;;;;;;;;;;;;4942648;29;20221;-77
2021/01/23 05:24:32;;;;;;;;;;;;;;;;;;4942443;29;19933;-78
2021/01/23 05:26:58;;;;;;;;;;;;;;;;;;4942284;29;20286;-78
2021/01/23 05:29:24;;;;;;;;;;;;;;;;;;4942221;29;19911;-77
2021/01/23 05:31:50;;;;;;;;;;;;;;;;;;4942282;29;19907;-77
2021/01/23 05:34:16;;;;;;;;;;;;;;;;;;4942087;29;19915;-77
2021/01/23 05:36:42;;;;;;;;;;;;;;;;;;4942010;29;20310;-78
2021/01/23 05:39:08;;;;;;;;;;;;;;;;;;4941969;29;19907;-77
2021/01/23 05:41:34;;;;;;;;;;;;;;;;;;4941975;29;19907;-77
2021/01/23 05:44:00;;;;;;;;;;;;;;;;;;4941880;29;19910;-77
2021/01/23 05:46:26;;;;;;;;;;;;;;;;;;4941935;29;19907;-77
2021/01/23 05:48:51;;;;;;;;;;;;;;;;;;4941895;29;19907;-77
2021/01/23 05:51:17;;;;;;;;;;;;;;;;;;4942016;29;19914;-78
2021/01/23 05:53:43;;;;;;;;;;;;;;;;;;4925075;29;19910;-77
2021/01/23 05:56:09;;;;;;;;;;;;;;;;;;4941827;29;19915;-78
2021/01/23 05:58:35;;;;;;;;;;;;;;;;;;4924912;29;20334;-77
2021/01/23 06:01:01;;;;;;;;;;;;;;;;;;4941662;29;19914;-77
2021/01/23 06:03:27;;;;;;;;;;;;;;;;;;4941459;29;19913;-78
2021/01/23 06:05:53;;;;;;;;;;;;;;;;;;4941461;29;19922;-77
2021/01/23 06:08:19;;;;;;;;;;;;;;;;;;4941521;29;19907;-78
2021/01/23 06:10:45;;;;;;;;;;;;;;;;;;4941591;29;19914;-78
2021/01/23 06:13:11;;;;;;;;;;;;;;;;;;4941198;29;19907;-77
2021/01/23 06:15:37;;;;;;;;;;;;;;;;;;4941353;29;19930;-77
2021/01/23 06:18:03;;;;;;;;;;;;;;;;;;4941498;29;20245;-77
2021/01/23 06:20:29;;;;;;;;;;;;;;;;;;4941294;29;19953;-77
2021/01/23 06:22:55;;;;;;;;;;;;;;;;;;4941482;29;19946;-77
2021/01/23 06:25:20;;;;;;;;;;;;;;;;;;4941470;29;19907;-78
2021/01/23 06:27:46;;;;;;;;;;;;;;;;;;4941234;29;19907;-78
2021/01/23 06:30:12;;;;;;;;;;;;;;;;;;4941203;29;20326;-78
2021/01/23 06:32:38;;;;;;;;;;;;;;;;;;4941257;29;19954;-78
2021/01/23 06:35:04;;;;;;;;;;;;;;;;;;4941251;29;19910;-78
2021/01/23 06:37:30;;;;;;;;;;;;;;;;;;4924337;29;20225;-78
2021/01/23 06:39:56;;;;;;;;;;;;;;;;;;4941134;29;19990;-79
2021/01/23 06:42:22;;;;;;;;;;;;;;;;;;4941052;29;19937;-80
2021/01/23 06:44:48;;;;;;;;;;;;;;;;;;4924298;29;19906;-78
2021/01/23 06:47:14;;;;;;;;;;;;;;;;;;4940661;29;20225;-78
2021/01/23 06:49:40;;;;;;;;;;;;;;;;;;4940827;29;19907;-77
2021/01/23 06:52:06;;;;;;;;;;;;;;;;;;4940293;29;19907;-77
2021/01/23 06:54:32;;;;;;;;;;;;;;;;;;4940435;29;19907;-77
2021/01/23 06:56:58;;;;;;;;;;;;;;;;;;4940751;29;19910;-77
2021/01/23 06:59:25;;;;;;;;;;;;;;;;;;4940459;29;20344;-77
2021/01/23 07:01:50;;;;;;;;;;;;;;;;;;4940760;29;19970;-78
2021/01/23 07:04:16;;;;;;;;;;;;;;;;;;4940300;29;20298;-77
2021/01/23 07:06:42;;;;;;;;;;;;;;;;;;4940466;29;19962;-77
2021/01/23 07:09:08;;;;;;;;;;;;;;;;;;4940656;29;19911;-77
2021/01/23 07:11:34;;;;;;;;;;;;;;;;;;4923628;29;19911;-77
2021/01/23 07:14:00;;;;;;;;;;;;;;;;;;4940541;29;19913;-77
2021/01/23 07:16:26;;;;;;;;;;;;;;;;;;4940563;29;19949;-77
2021/01/23 07:18:52;;;;;;;;;;;;;;;;;;4940506;29;19906;-77
2021/01/23 07:21:18;;;;;;;;;;;;;;;;;;4940206;29;19953;-77
2021/01/23 07:23:44;;;;;;;;;;;;;;;;;;4923512;29;19907;-78
2021/01/23 07:26:10;;;;;;;;;;;;;;;;;;4939371;29;19906;-77
2021/01/23 07:28:39;;;;;;;;;;;;;;;;;;4923326;29;19907;-77
2021/01/23 07:31:05;;;;;;;;;;;;;;;;;;4940154;29;19907;-78
2021/01/23 07:33:31;;;;;;;;;;;;;;;;;;4940104;29;19913;-78
2021/01/23 07:35:57;;;;;;;;;;;;;;;;;;4923530;29;19937;-78
2021/01/23 07:38:23;;;;;;;;;;;;;;;;;;4940149;29;19911;-78
2021/01/23 07:40:48;;;;;;;;;;;;;;;;;;4940230;29;19913;-77
2021/01/23 07:43:14;;;;;;;;;;;;;;;;;;4940091;29;19907;-78
2021/01/23 07:45:41;;;;;;;;;;;;;;;;;;4939423;29;19925;-77
2021/01/23 07:48:07;;;;;;;;;;;;;;;;;;4939603;29;19907;-77
2021/01/23 07:50:33;;;;;;;;;;;;;;;;;;4939908;29;19933;-78
2021/01/23 07:52:59;;;;;;;;;;;;;;;;;;4939417;29;20313;-78
2021/01/23 07:55:25;;;;;;;;;;;;;;;;;;4939265;29;19907;-78
2021/01/23 07:57:51;;;;;;;;;;;;;;;;;;4939679;29;19907;-77
2021/01/23 08:00:17;;;;;;;;;;;;;;;;;;4939468;29;19913;-78
2021/01/23 08:02:43;;;;;;;;;;;;;;;;;;4922613;29;19997;-78
2021/01/23 08:05:09;;;;;;;;;;;;;;;;;;4939185;29;19919;-77
2021/01/23 08:07:35;;;;;;;;;;;;;;;;;;4939319;29;20369;-77
2021/01/23 08:10:00;;;;;;;;;;;;;;;;;;4922606;29;20242;-77
2021/01/23 08:12:26;;;;;;;;;;;;;;;;;;4939421;29;19907;-77
2021/01/23 08:14:52;;;;;;;;;;;;;;;;;;4939229;29;19962;-77
2021/01/23 08:17:18;;;;;;;;;;;;;;;;;;4938213;29;19937;-77
2021/01/23 08:19:44;;;;;;;;;;;;;;;;;;4935043;29;20250;-77
2021/01/23 08:22:10;;;;;;;;;;;;;;;;;;4913002;29;19920;-74
2021/01/23 08:24:36;;;;;;;;;;;;;;;;;;4920890;29;19993;-74
2021/01/23 08:27:02;;;;;;;;;;;;;;;;;;4921101;29;20302;-74
2021/01/23 08:29:28;;;;;;;;;;;;;;;;;;4929893;29;20325;-79
2021/01/23 08:31:54;;;;;;;;;;;;;;;;;;4938084;29;19918;-78
2021/01/23 08:34:20;;;;;;;;;;;;;;;;;;4939604;29;19911;-79
2021/01/23 08:36:46;;;;;;;;;;;;;;;;;;4921722;29;20221;-79
2021/01/23 08:39:11;;;;;;;;;;;;;;;;;;4942403;29;19917;-79
2021/01/23 08:41:39;;;;;;;;;;;;;;;;;;4924394;29;19910;-79
2021/01/23 08:44:05;;;;;;;;;;;;;;;;;;4943200;29;19954;-79
2021/01/23 08:46:31;;;;;;;;;;;;;;;;;;4938828;29;19907;-79
2021/01/23 08:48:59;;;;;;;;;;;;;;;;;;4923900;29;20318;-79
2021/01/23 08:51:25;;;;;;;;;;;;;;;;;;4926621;29;19922;-79
2021/01/23 08:53:51;;;;;;;;;;;;;;;;;;4942732;29;19910;-79
2021/01/23 08:56:17;;;;;;;;;;;;;;;;;;4942254;29;19962;-78
2021/01/23 08:58:43;;;;;;;;;;;;;;;;;;4942351;29;19918;-77
2021/01/23 09:01:09;;;;;;;;;;;;;;;;;;4941865;29;19910;-76
2021/01/23 09:03:35;;;;;;;;;;;;;;;;;;4941861;29;19911;-77
2021/01/23 09:06:02;;;;;;;;;;;;;;;;;;4937969;29;19926;-77
2021/01/23 09:08:28;;;;;;;;;;;;;;;;;;4930271;29;19911;-78
2021/01/23 09:10:54;;;;;;;;;;;;;;;;;;4942873;29;19929;-78
2021/01/23 09:13:20;;;;;;;;;;;;;;;;;;4941925;29;20293;-78
2021/01/23 09:15:46;;;;;;;;;;;;;;;;;;4924704;29;19910;-76
2021/01/23 09:18:12;;;;;;;;;;;;;;;;;;4941621;29;19958;-77
2021/01/23 09:20:38;;;;;;;;;;;;;;;;;;4936906;29;20202;-77
2021/01/23 09:23:03;;;;;;;;;;;;;;;;;;4937150;29;19915;-81
2021/01/23 09:25:29;;;;;;;;;;;;;;;;;;4936786;29;19958;-78
2021/01/23 09:27:55;;;;;;;;;;;;;;;;;;4923399;29;19950;-80
2021/01/23 09:30:21;;;;;;;;;;;;;;;;;;4934374;29;19954;-79
2021/01/23 09:32:47;;;;;;;;;;;;;;;;;;4941815;29;19965;-80
2021/01/23 09:35:13;;;;;;;;;;;;;;;;;;4942023;29;19914;-79
2021/01/23 09:37:39;;;;;;;;;;;;;;;;;;4941270;29;19926;-80
2021/01/23 09:40:05;;;;;;;;;;;;;;;;;;4941893;29;19911;-79
2021/01/23 09:42:31;;;;;;;;;;;;;;;;;;4941855;29;19930;-79
2021/01/23 09:44:57;;;;;;;;;;;;;;;;;;4941945;29;19914;-79
2021/01/23 09:47:23;;;;;;;;;;;;;;;;;;4924808;29;19911;-80
2021/01/23 09:49:49;;;;;;;;;;;;;;;;;;4924156;29;19907;-80
2021/01/23 09:52:15;;;;;;;;;;;;;;;;;;4941794;29;19945;-82
2021/01/23 09:54:41;;;;;;;;;;;;;;;;;;4941878;29;19929;-80
2021/01/23 09:57:07;;;;;;;;;;;;;;;;;;4941642;29;19928;-80
2021/01/23 09:59:33;;;;;;;;;;;;;;;;;;4941657;29;19938;-80
2021/01/23 10:01:59;;;;;;;;;;;;;;;;;;4924517;29;19951;-80
2021/01/23 10:04:25;;;;;;;;;;;;;;;;;;4941695;29;19959;-81
2021/01/23 10:06:51;;;;;;;;;;;;;;;;;;4941632;29;19915;-80
2021/01/23 10:09:17;;;;;;;;;;;;;;;;;;4941556;29;19907;-80
2021/01/23 10:11:43;;;;;;;;;;;;;;;;;;4941470;29;19954;-80
2021/01/23 10:14:09;;;;;;;;;;;;;;;;;;4941367;29;19906;-80
2021/01/23 10:16:35;;;;;;;;;;;;;;;;;;4924466;29;19910;-87
2021/01/23 10:19:04;;;;;;;;;;;;;;;;;;4924934;29;19928;-85
2021/01/23 10:21:30;;;;;;;;;;;;;;;;;;4924449;29;19911;-85
2021/01/23 10:23:56;;;;;;;;;;;;;;;;;;4941820;29;19927;-85
2021/01/23 10:26:22;;;;;;;;;;;;;;;;;;4945280;29;19912;-86
2021/01/23 10:28:48;;;;;;;;;;;;;;;;;;4956792;29;19906;-87
2021/01/23 10:33:59;;;;;;;;;;;;;;;;;;4961039;29;19917;-88
2021/01/23 10:36:25;;;;;;;;;;;;;;;;;;4952003;29;20238;-87
2021/01/23 10:38:51;;;;;;;;;;;;;;;;;;4924893;29;19907;-87
2021/01/23 10:41:17;;;;;;;;;;;;;;;;;;4941842;29;19911;-87
2021/01/23 10:43:42;;;;;;;;;;;;;;;;;;4941411;29;19914;-87
2021/01/23 10:48:53;;;;;;;;;;;;;;;;;;4941258;29;19973;-84
2021/01/23 10:51:19;;;;;;;;;;;;;;;;;;4924025;29;19946;-85
2021/01/23 10:53:47;;;;;;;;;;;;;;;;;;4941382;29;19962;-87
2021/01/23 10:56:13;;;;;;;;;;;;;;;;;;4941305;29;19915;-87
2021/01/23 10:58:39;;;;;;;;;;;;;;;;;;4941347;29;19906;-91
2021/01/23 11:01:05;;;;;;;;;;;;;;;;;;4941107;29;19913;-90
2021/01/23 11:03:31;;;;;;;;;;;;;;;;;;4941115;29;19906;-90
2021/01/23 11:05:57;;;;;;;;;;;;;;;;;;4924598;29;19921;-90
2021/01/23 11:08:23;;;;;;;;;;;;;;;;;;4941015;29;20013;-88
2021/01/23 11:10:49;;;;;;;;;;;;;;;;;;4924515;29;19910;-90
2021/01/23 11:13:15;;;;;;;;;;;;;;;;;;4941158;29;19911;-89
2021/01/23 11:18:25;;;;;;;;;;;;;;;;;;4941149;29;19913;-87
2021/01/23 11:20:51;;;;;;;;;;;;;;;;;;4941018;29;19911;-87
2021/01/23 11:23:17;;;;;;;;;;;;;;;;;;4941333;29;19915;-89
2021/01/23 11:25:43;;;;;;;;;;;;;;;;;;4924020;29;20294;-86
2021/01/23 11:28:09;;;;;;;;;;;;;;;;;;4924444;29;19914;-86
2021/01/23 11:33:20;;;;;;;;;;;;;;;;;;4940429;29;19913;-88
2021/01/23 11:35:46;;;;;;;;;;;;;;;;;;4940667;29;20368;-96
2021/01/23 11:38:12;;;;;;;;;;;;;;;;;;4940634;29;19913;-88
2021/01/23 11:40:38;;;;;;;;;;;;;;;;;;4940996;29;19913;-86
2021/01/23 11:43:03;;;;;;;;;;;;;;;;;;4940839;29;20001;-87
2021/01/23 11:45:30;;;;;;;;;;;;;;;;;;4940862;29;19934;-89
2021/01/23 11:47:56;;;;;;;;;;;;;;;;;;4940701;29;19968;-88
2021/01/23 11:50:22;;;;;;;;;;;;;;;;;;4940943;29;19915;-87
2021/01/23 11:52:48;;;;;;;;;;;;;;;;;;4940879;29;19913;-88
2021/01/23 11:55:14;;;;;;;;;;;;;;;;;;4940898;29;20321;-88
2021/01/23 11:57:40;;;;;;;;;;;;;;;;;;4939769;29;19953;-88
2021/01/23 12:05:35;;;;;;;;;;;;;;;;;;4940317;29;19925;-88
2021/01/23 12:08:01;;;;;;;;;;;;;;;;;;4940342;29;19915;-87
2021/01/23 12:10:27;;;;;;;;;;;;;;;;;;4940397;29;19914;-89
2021/01/23 12:12:55;;;;;;;;;;;;;;;;;;4943351;29;19997;-89
2021/01/23 12:15:22;;;;;;;;;;;;;;;;;;4944254;29;19914;-89
2021/01/23 12:17:48;;;;;;;;;;;;;;;;;;4944019;29;20353;-89
2021/01/23 12:20:14;;;;;;;;;;;;;;;;;;4926993;29;19918;-89
2021/01/23 12:22:40;;;;;;;;;;;;;;;;;;4926966;29;19907;-87
2021/01/23 12:25:06;;;;;;;;;;;;;;;;;;4944107;29;19906;-88
2021/01/23 12:27:32;;;;;;;;;;;;;;;;;;4944052;29;19977;-85
2021/01/23 12:29:57;;;;;;;;;;;;;;;;;;4944029;29;19907;-87
2021/01/23 12:32:23;;;;;;;;;;;;;;;;;;4927150;29;19910;-87
2021/01/23 12:34:49;;;;;;;;;;;;;;;;;;4943735;29;19911;-87
2021/01/23 12:37:15;;;;;;;;;;;;;;;;;;4926897;29;19925;-86
2021/01/23 12:39:41;;;;;;;;;;;;;;;;;;4943655;29;19907;-88
2021/01/23 12:42:07;;;;;;;;;;;;;;;;;;4926616;29;19914;-87
2021/01/23 12:44:33;;;;;;;;;;;;;;;;;;4943718;29;19986;-86
2021/01/23 12:46:59;;;;;;;;;;;;;;;;;;4926183;29;20001;-86
2021/01/23 12:49:25;;;;;;;;;;;;;;;;;;4943807;29;19914;-89
2021/01/23 12:51:51;;;;;;;;;;;;;;;;;;4943531;29;19911;-89
2021/01/23 12:54:17;;;;;;;;;;;;;;;;;;4943817;29;19929;-89
2021/01/23 12:56:43;;;;;;;;;;;;;;;;;;4943610;29;20293;-88
2021/01/23 12:59:09;;;;;;;;;;;;;;;;;;4926999;29;19907;-88
2021/01/23 13:01:35;;;;;;;;;;;;;;;;;;4943783;29;19914;-87
2021/01/23 13:04:01;;;;;;;;;;;;;;;;;;4926452;29;20325;-87
2021/01/23 13:06:27;;;;;;;;;;;;;;;;;;4943525;29;19915;-89
2021/01/23 13:08:53;;;;;;;;;;;;;;;;;;4943259;29;19911;-89
2021/01/23 13:11:19;;;;;;;;;;;;;;;;;;4943420;29;20005;-90
2021/01/23 13:13:46;;;;;;;;;;;;;;;;;;4943490;29;19954;-89
2021/01/23 13:16:16;;;;;;;;;;;;;;;;;;4943469;29;19911;-90
2021/01/23 13:18:42;;;;;;;;;;;;;;;;;;4926782;29;19955;-91
2021/01/23 13:21:08;;;;;;;;;;;;;;;;;;4926579;29;20202;-90
2021/01/23 13:23:34;;;;;;;;;;;;;;;;;;4943024;29;19930;-90
2021/01/23 13:26:00;;;;;;;;;;;;;;;;;;4943109;29;19950;-87
2021/01/23 13:28:26;;;;;;;;;;;;;;;;;;4926577;29;20059;-88
2021/01/23 13:30:52;;;;;;;;;;;;;;;;;;4943010;29;19947;-87
2021/01/23 13:33:18;;;;;;;;;;;;;;;;;;4926385;29;19906;-89
2021/01/23 13:35:44;;;;;;;;;;;;;;;;;;4943051;29;19925;-88
2021/01/23 13:38:11;;;;;;;;;;;;;;;;;;4943134;29;19997;-88
2021/01/23 13:40:37;;;;;;;;;;;;;;;;;;4943074;29;19911;-87
2021/01/23 13:43:03;;;;;;;;;;;;;;;;;;4925988;29;19918;-87
2021/01/23 13:45:31;;;;;;;;;;;;;;;;;;4942959;29;19911;-88
2021/01/23 13:47:56;;;;;;;;;;;;;;;;;;4942750;29;19914;-88
2021/01/23 13:50:22;;;;;;;;;;;;;;;;;;4925384;29;20018;-87
2021/01/23 13:52:48;;;;;;;;;;;;;;;;;;4942813;29;19978;-87
2021/01/23 13:55:14;;;;;;;;;;;;;;;;;;4942906;29;20309;-89
2021/01/23 13:57:40;;;;;;;;;;;;;;;;;;4942432;29;19911;-89
2021/01/23 14:05:36;;;;;;;;;;;;;;;;;;4933590;29;19926;-91
2021/01/23 14:08:01;;;;;;;;;;;;;;;;;;4925531;29;19911;-91
2021/01/23 14:10:27;;;;;;;;;;;;;;;;;;4942360;29;19914;-92
2021/01/23 14:12:53;;;;;;;;;;;;;;;;;;4925407;29;19911;-91
2021/01/23 14:15:23;;;;;;;;;;;;;;;;;;4925355;29;19933;-90
2021/01/23 14:17:49;;;;;;;;;;;;;;;;;;4941926;29;19958;-92
2021/01/23 14:20:15;;;;;;;;;;;;;;;;;;4942199;29;19907;-91
2021/01/23 14:22:41;;;;;;;;;;;;;;;;;;4942180;29;19914;-91
2021/01/23 14:25:07;;;;;;;;;;;;;;;;;;4941975;29;20349;-91
2021/01/23 14:27:32;;;;;;;;;;;;;;;;;;4942104;29;19987;-91
2021/01/23 14:38:13;;;;;;;;;;;;;;;;;;4945624;29;20014;-88
2021/01/23 14:40:39;;;;;;;;;;;;;;;;;;4925032;29;19993;-88
2021/01/23 14:43:05;;;;;;;;;;;;;;;;;;4941694;29;20238;-88
2021/01/23 14:51:00;;;;;;;;;;;;;;;;;;4922285;29;20068;-87
2021/01/23 14:53:26;;;;;;;;;;;;;;;;;;4922749;29;19998;-86
2021/01/23 14:55:52;;;;;;;;;;;;;;;;;;4923881;29;19978;-90
2021/01/23 14:58:18;;;;;;;;;;;;;;;;;;4941478;29;19942;-88
2021/01/23 15:03:29;;;;;;;;;;;;;;;;;;4941190;29;19933;-82
2021/01/23 15:05:55;;;;;;;;;;;;;;;;;;4923668;29;20353;-82
2021/01/23 15:08:21;;;;;;;;;;;;;;;;;;4940858;29;19913;-82
2021/01/23 15:10:46;;;;;;;;;;;;;;;;;;4923781;29;19907;-82
2021/01/23 15:13:12;;;;;;;;;;;;;;;;;;4940660;29;19907;-82
2021/01/23 15:15:40;;;;;;;;;;;;;;;;;;4940331;29;19907;-82
2021/01/23 15:18:06;;;;;;;;;;;;;;;;;;4923096;29;19907;-80
2021/01/23 15:20:33;;;;;;;;;;;;;;;;;;4940267;29;19907;-80
2021/01/23 15:22:59;;;;;;;;;;;;;;;;;;4940390;29;19907;-80
2021/01/23 15:25:25;;;;;;;;;;;;;;;;;;4940759;29;19907;-85
2021/01/23 15:27:51;;;;;;;;;;;;;;;;;;4940449;29;20265;-86
2021/01/23 15:30:17;;;;;;;;;;;;;;;;;;4940627;29;19981;-87
2021/01/23 15:32:43;;;;;;;;;;;;;;;;;;4940938;29;19906;-85
2021/01/23 15:35:09;;;;;;;;;;;;;;;;;;4940831;29;19958;-87
2021/01/23 15:37:38;;;;;;;;;;;;;;;;;;4923106;29;19915;-83
2021/01/23 15:40:04;;;;;;;;;;;;;;;;;;4923867;29;19921;-86
2021/01/23 15:42:30;;;;;;;;;;;;;;;;;;4948056;29;20001;-86
2021/01/23 15:44:56;;;;;;;;;;;;;;;;;;4960246;29;19913;-87
2021/01/23 15:47:22;;;;;;;;;;;;;;;;;;4935959;29;19907;-84
2021/01/23 15:49:48;;;;;;;;;;;;;;;;;;4940796;29;20225;-85
2021/01/23 15:52:14;;;;;;;;;;;;;;;;;;4940692;29;19913;-85
2021/01/23 15:54:39;;;;;;;;;;;;;;;;;;4940580;29;19941;-85
2021/01/23 15:57:05;;;;;;;;;;;;;;;;;;4940717;29;20336;-85
2021/01/23 15:59:31;;;;;;;;;;;;;;;;;;4923438;29;20289;-84
2021/01/23 16:01:57;;;;;;;;;;;;;;;;;;4923255;29;20213;-84
2021/01/23 16:04:23;;;;;;;;;;;;;;;;;;4939473;29;19922;-84
2021/01/23 16:06:49;;;;;;;;;;;;;;;;;;4939772;29;19922;-85
2021/01/23 16:09:16;;;;;;;;;;;;;;;;;;4940593;29;19914;-86
2021/01/23 16:11:42;;;;;;;;;;;;;;;;;;4940807;29;19914;-85
2021/01/23 16:14:08;;;;;;;;;;;;;;;;;;4923405;29;19915;-85
2021/01/23 16:16:34;;;;;;;;;;;;;;;;;;4939604;29;19915;-85
2021/01/23 16:19:00;;;;;;;;;;;;;;;;;;4923027;29;20301;-88
2021/01/23 16:21:26;;;;;;;;;;;;;;;;;;4940259;29;19911;-90
2021/01/23 16:23:52;;;;;;;;;;;;;;;;;;4923875;29;19907;-86
2021/01/23 16:26:17;;;;;;;;;;;;;;;;;;4940588;29;19998;-87
2021/01/23 16:28:43;;;;;;;;;;;;;;;;;;4940490;29;19954;-85
2021/01/23 16:31:09;;;;;;;;;;;;;;;;;;4940474;29;20349;-86
2021/01/23 16:33:36;;;;;;;;;;;;;;;;;;4923536;29;20368;-87
2021/01/23 16:36:02;;;;;;;;;;;;;;;;;;4940060;29;19914;-85
2021/01/23 16:38:28;;;;;;;;;;;;;;;;;;4940362;29;19989;-84
2021/01/23 16:40:54;;;;;;;;;;;;;;;;;;4940217;29;20294;-85
2021/01/23 16:43:20;;;;;;;;;;;;;;;;;;4940299;29;19934;-85
2021/01/23 16:45:46;;;;;;;;;;;;;;;;;;4940279;29;19906;-85
2021/01/23 16:48:12;;;;;;;;;;;;;;;;;;4939928;29;19954;-86
2021/01/23 16:50:38;;;;;;;;;;;;;;;;;;4940249;29;19950;-86
2021/01/23 16:53:03;;;;;;;;;;;;;;;;;;4940038;29;19973;-86
2021/01/23 16:55:29;;;;;;;;;;;;;;;;;;4923060;29;20251;-85
2021/01/23 16:57:55;;;;;;;;;;;;;;;;;;4941205;29;19910;-85
2021/01/23 17:00:21;;;;;;;;;;;;;;;;;;4943651;29;19950;-88
2021/01/23 17:02:48;;;;;;;;;;;;;;;;;;4950777;29;20009;-95
2021/01/23 17:05:14;;;;;;;;;;;;;;;;;;4928549;29;20341;-95
2021/01/23 17:07:40;;;;;;;;;;;;;;;;;;4944703;29;19906;-91
2021/01/23 17:10:06;;;;;;;;;;;;;;;;;;4943755;29;19929;-92
2021/01/23 17:12:32;;;;;;;;;;;;;;;;;;4926858;29;20217;-92
2021/01/23 17:14:58;;;;;;;;;;;;;;;;;;4943401;29;19961;-92